Time;durP1;ratioP1;P1;durP2;ratioP2;P2;SDS_P1;SDS_P2;PMS_P1;PMS_P2;Temp;Humidity;BMP_temperature;BMP_pressure;BME280_temperature;BME280_humidity;BME280_pressure;Samples;Min_cycle;Max_cycle;Signal;HPM_P1;HPM_P2
2023/06/21 00:00:15;;;;;;;15.00;7.45;;;;;;;18.55;100.00;101115.19;5009165;28;20038;-71
2023/06/21 00:02:44;;;;;;;14.93;8.32;;;;;;;18.56;100.00;101121.41;5009000;28;20281;-71
2023/06/21 00:05:10;;;;;;;12.95;7.55;;;;;;;18.53;100.00;101128.13;5009048;28;20438;-72
2023/06/21 00:07:38;;;;;;;12.25;7.43;;;;;;;18.52;100.00;101125.66;5009021;28;20017;-71
2023/06/21 00:10:07;;;;;;;14.80;7.32;;;;;;;18.46;100.00;101127.44;5008685;28;20544;-71
2023/06/21 00:12:33;;;;;;;14.70;8.35;;;;;;;18.47;100.00;101134.50;5009009;28;20033;-72
2023/06/21 00:14:58;;;;;;;13.32;7.25;;;;;;;18.46;100.00;101132.03;5008814;28;20022;-72
2023/06/21 00:17:23;;;;;;;13.23;8.07;;;;;;;18.47;100.00;101133.66;5008783;28;20041;-72
2023/06/21 00:19:49;;;;;;;13.93;7.68;;;;;;;18.45;100.00;101146.59;5008818;28;20488;-72
2023/06/21 00:22:21;;;;;;;13.18;7.25;;;;;;;18.40;100.00;101140.03;5008734;28;20042;-72
2023/06/21 00:24:47;;;;;;;;;;;;;;;18.47;100.00;101137.22;5009292;28;20104;-72
2023/06/21 00:27:12;;;;;;;16.80;7.65;;;;;;;18.42;100.00;101138.97;4989855;28;19992;-72
2023/06/21 00:29:37;;;;;;;13.70;8.15;;;;;;;18.37;100.00;101140.53;5008820;28;20389;-72
2023/06/21 00:32:03;;;;;;;13.98;7.68;;;;;;;18.37;100.00;101145.94;5008610;28;20164;-72
2023/06/21 00:34:28;;;;;;;12.65;7.57;;;;;;;18.36;100.00;101149.66;5005284;28;20061;-72
2023/06/21 00:36:54;;;;;;;12.52;7.97;;;;;;;18.36;100.00;101144.28;4989676;28;20188;-71
2023/06/21 00:39:19;;;;;;;14.52;7.95;;;;;;;18.35;100.00;101141.81;4993230;28;20081;-72
2023/06/21 00:41:45;;;;;;;12.98;8.02;;;;;;;18.34;100.00;101141.00;4993755;28;20462;-72
2023/06/21 00:44:10;;;;;;;14.35;7.90;;;;;;;18.34;100.00;101146.41;5000324;28;20040;-72
2023/06/21 00:46:35;;;;;;;13.15;8.45;;;;;;;18.30;100.00;101147.94;5001143;28;20513;-72
2023/06/21 00:49:01;;;;;;;12.88;8.02;;;;;;;18.28;100.00;101146.53;5006817;28;20442;-71
2023/06/21 00:51:26;;;;;;;14.05;9.02;;;;;;;18.28;100.00;101138.44;5012511;28;20030;-71
2023/06/21 00:53:52;;;;;;;15.32;8.32;;;;;;;18.31;100.00;101140.66;5012546;28;20030;-72
2023/06/21 00:56:17;;;;;;;14.57;8.80;;;;;;;18.33;100.00;101149.34;5012352;28;20129;-72
2023/06/21 00:58:43;;;;;;;14.43;7.40;;;;;;;18.27;100.00;101145.72;5012738;28;20121;-72
2023/06/21 01:01:09;;;;;;;13.52;8.38;;;;;;;18.26;100.00;101154.91;5012379;28;20405;-72
2023/06/21 01:03:36;;;;;;;14.77;8.63;;;;;;;18.23;100.00;101149.97;5012235;28;20037;-71
2023/06/21 01:06:24;;;;;;;14.15;8.40;;;;;;;18.31;100.00;101159.56;5012390;28;20417;-72
2023/06/21 01:09:08;;;;;;;13.05;7.70;;;;;;;18.29;100.00;101167.91;5012105;28;20049;-71
2023/06/21 01:11:51;;;;;;;15.57;9.32;;;;;;;18.24;100.00;101165.13;5012089;28;20660;-72
2023/06/21 01:14:42;;;;;;;16.65;9.20;;;;;;;18.22;100.00;101164.53;5012002;28;20034;-72
2023/06/21 01:17:11;;;;;;;16.48;9.45;;;;;;;18.18;100.00;101153.41;5012217;28;20029;-71
2023/06/21 01:19:47;;;;;;;16.15;8.77;;;;;;;18.20;100.00;101169.34;5011827;28;20033;-71
2023/06/21 01:22:34;;;;;;;15.45;8.48;;;;;;;18.21;100.00;101165.59;5012031;28;20161;-72
2023/06/21 01:25:18;;;;;;;15.13;9.45;;;;;;;18.19;100.00;101167.72;4991112;28;20064;-71
2023/06/21 01:28:05;;;;;;;15.18;8.90;;;;;;;18.15;100.00;101163.84;5012126;28;20042;-72
2023/06/21 01:30:32;;;;;;;14.02;8.00;;;;;;;18.12;100.00;101165.13;5012315;28;20030;-72
2023/06/21 01:32:59;;;;;;;16.42;8.82;;;;;;;18.09;100.00;101157.53;5011678;28;20026;-72
2023/06/21 01:35:25;;;;;;;15.23;8.63;;;;;;;18.18;100.00;101168.75;4994353;28;20053;-72
2023/06/21 01:37:51;;;;;;;15.52;9.60;;;;;;;18.15;100.00;101166.53;5011634;28;20097;-72
2023/06/21 01:40:16;;;;;;;14.50;8.77;;;;;;;18.14;100.00;101173.00;5011792;28;20062;-72
2023/06/21 01:42:41;;;;;;;17.65;8.98;;;;;;;18.14;100.00;101175.72;5011466;28;20036;-72
2023/06/21 01:45:08;;;;;;;17.13;9.57;;;;;;;18.15;100.00;101186.25;5011518;28;20409;-72
2023/06/21 01:47:35;;;;;;;16.27;9.15;;;;;;;18.10;100.00;101179.94;5011475;28;20050;-72
2023/06/21 01:50:04;;;;;;;15.93;8.75;;;;;;;18.08;100.00;101184.78;5011296;28;20025;-72
2023/06/21 01:52:31;;;;;;;19.17;10.77;;;;;;;18.04;100.00;101189.00;5011364;28;20033;-72
2023/06/21 01:54:57;;;;;;;14.88;9.65;;;;;;;18.00;100.00;101180.56;5011226;28;20029;-72
2023/06/21 01:57:24;;;;;;;17.98;9.68;;;;;;;17.99;100.00;101180.78;5011360;28;20077;-72
2023/06/21 01:59:50;;;;;;;14.95;8.90;;;;;;;17.98;100.00;101182.66;5011082;28;20034;-72
2023/06/21 02:02:17;;;;;;;15.90;9.30;;;;;;;18.00;100.00;101185.13;5011223;28;20030;-72
2023/06/21 02:04:45;;;;;;;15.15;9.13;;;;;;;18.01;100.00;101181.38;4992538;28;20039;-72
2023/06/21 02:07:13;;;;;;;17.55;10.55;;;;;;;18.01;100.00;101186.78;4992540;28;20034;-72
2023/06/21 02:09:40;;;;;;;19.67;10.90;;;;;;;17.98;100.00;101195.34;4992322;28;20508;-72
2023/06/21 02:12:06;;;;;;;15.68;9.55;;;;;;;18.02;100.00;101197.31;4992037;28;20500;-72
2023/06/21 02:14:31;;;;;;;17.10;9.23;;;;;;;18.03;100.00;101198.97;4992258;28;20092;-72
2023/06/21 02:16:57;;;;;;;19.27;9.85;;;;;;;18.01;100.00;101202.97;4992069;28;20034;-72
2023/06/21 02:19:24;;;;;;;18.48;10.25;;;;;;;18.00;100.00;101204.84;4992080;28;20409;-72
2023/06/21 02:21:50;;;;;;;15.13;9.63;;;;;;;17.98;100.00;101195.34;4974724;28;20046;-72
2023/06/21 02:24:16;;;;;;;15.82;8.95;;;;;;;17.92;100.00;101195.25;4992089;28;20030;-72
2023/06/21 02:26:41;;;;;;;15.98;9.10;;;;;;;17.90;100.00;101199.22;4991562;28;20505;-72
2023/06/21 02:29:07;;;;;;;17.15;10.55;;;;;;;17.87;100.00;101207.81;4991967;28;20109;-72
2023/06/21 02:31:33;;;;;;;17.75;10.18;;;;;;;17.89;100.00;101219.16;4974450;28;20079;-72
2023/06/21 02:33:58;;;;;;;13.98;8.60;;;;;;;17.88;100.00;101223.75;4992026;28;20031;-72
2023/06/21 02:36:24;;;;;;;15.75;8.23;;;;;;;17.86;100.00;101217.75;4991656;28;20050;-72
2023/06/21 02:38:49;;;;;;;16.80;9.63;;;;;;;17.82;100.00;101219.31;4991929;28;20125;-72
2023/06/21 02:41:15;;;;;;;16.10;9.18;;;;;;;17.78;100.00;101220.78;4991804;28;20045;-72
2023/06/21 02:43:40;;;;;;;18.38;10.57;;;;;;;17.81;100.00;101225.72;4991726;28;20034;-72
2023/06/21 02:46:05;;;;;;;14.90;9.18;;;;;;;17.81;100.00;101233.84;4991496;28;20026;-72
2023/06/21 02:48:31;;;;;;;15.55;10.27;;;;;;;17.79;100.00;101229.69;4991591;28;20050;-72
2023/06/21 02:50:56;;;;;;;17.88;10.30;;;;;;;17.78;100.00;101228.88;4991591;28;20085;-73
2023/06/21 02:53:21;;;;;;;16.48;9.65;;;;;;;17.78;100.00;101228.88;4991736;28;20072;-72
2023/06/21 02:55:47;;;;;;;15.60;9.50;;;;;;;17.75;100.00;101235.56;4991462;28;20073;-72
2023/06/21 02:58:12;;;;;;;21.27;9.60;;;;;;;17.75;100.00;101245.53;4991307;28;20038;-72
2023/06/21 03:00:40;;;;;;;15.80;9.05;;;;;;;17.72;100.00;101240.63;4990798;28;20033;-72
2023/06/21 03:03:06;;;;;;;16.00;10.52;;;;;;;17.71;100.00;101249.75;4991220;28;20049;-72
2023/06/21 03:05:35;;;;;;;18.05;10.98;;;;;;;17.68;100.00;101252.91;4991324;28;20026;-72
2023/06/21 03:08:03;;;;;;;18.30;10.05;;;;;;;17.71;100.00;101263.25;4974287;28;20038;-72
2023/06/21 03:10:30;;;;;;;16.50;10.77;;;;;;;17.74;100.00;101258.22;4991074;28;20045;-73
2023/06/21 03:12:55;;;;;;;16.00;9.93;;;;;;;17.72;100.00;101267.59;4991109;28;20473;-72
2023/06/21 03:15:21;;;;;;;18.42;9.77;;;;;;;17.74;100.00;101270.88;4990938;28;20069;-72
2023/06/21 03:17:46;;;;;;;19.55;12.43;;;;;;;17.76;100.00;101276.84;4991296;28;20034;-72
2023/06/21 03:20:13;;;;;;;18.13;10.63;;;;;;;17.77;100.00;101275.00;4982190;28;20037;-72
2023/06/21 03:22:41;;;;;;;17.75;10.68;;;;;;;17.75;100.00;101286.00;5009694;28;20029;-72
2023/06/21 03:25:07;;;;;;;18.05;10.63;;;;;;;17.72;100.00;101284.59;5006194;28;20023;-72
2023/06/21 03:27:33;;;;;;;17.63;10.25;;;;;;;17.78;100.00;101285.53;4990809;28;20076;-72
2023/06/21 03:29:59;;;;;;;18.30;10.82;;;;;;;17.77;100.00;101300.09;4990865;28;20027;-72
2023/06/21 03:32:24;;;;;;;18.63;11.40;;;;;;;17.74;100.00;101296.00;4990839;28;20030;-72
2023/06/21 03:34:49;;;;;;;16.27;10.30;;;;;;;17.77;100.00;101300.09;4990665;28;20071;-72
2023/06/21 03:37:15;;;;;;;18.02;11.20;;;;;;;17.74;100.00;101300.56;4998847;28;20096;-72
2023/06/21 03:39:40;;;;;;;18.42;10.10;;;;;;;17.73;100.00;101296.22;5009337;28;20038;-72
2023/06/21 03:42:06;;;;;;;19.88;10.57;;;;;;;17.72;100.00;101291.88;5009289;28;20037;-73
2023/06/21 03:44:31;;;;;;;21.58;10.65;;;;;;;17.77;100.00;101292.00;5009406;28;20042;-72
2023/06/21 03:46:58;;;;;;;20.17;10.95;;;;;;;17.80;100.00;101299.66;5009322;28;20541;-72
2023/06/21 03:49:24;;;;;;;17.33;11.00;;;;;;;17.80;100.00;101298.84;5009727;28;20029;-72
2023/06/21 03:51:49;;;;;;;18.17;10.95;;;;;;;17.80;100.00;101293.44;5009388;28;20040;-72
2023/06/21 03:54:15;;;;;;;19.05;10.23;;;;;;;17.79;100.00;101292.63;4991448;28;20030;-73
2023/06/21 03:56:40;;;;;;;16.67;9.82;;;;;;;17.80;100.00;101288.84;5009001;28;20037;-72
2023/06/21 03:59:05;;;;;;;18.77;10.20;;;;;;;17.82;100.00;101284.06;4991572;28;20532;-72
2023/06/21 04:01:31;;;;;;;18.30;11.27;;;;;;;17.84;100.00;101294.59;5009107;28;20045;-72
2023/06/21 04:03:56;;;;;;;18.60;11.55;;;;;;;17.81;100.00;101295.06;5009165;28;20057;-73
2023/06/21 04:06:22;;;;;;;19.02;10.35;;;;;;;17.82;100.00;101308.34;5009084;28;20026;-72
2023/06/21 04:08:48;;;;;;;20.15;11.93;;;;;;;17.82;100.00;101300.25;4989812;28;20041;-72
2023/06/21 04:11:14;;;;;;;17.75;9.75;;;;;;;17.88;100.00;101303.88;4990615;28;20035;-72
2023/06/21 04:13:39;;;;;;;20.23;10.95;;;;;;;17.96;100.00;101312.44;4989217;28;20030;-72
2023/06/21 04:16:05;;;;;;;20.73;12.00;;;;;;;17.99;100.00;101304.94;4990009;28;20030;-73
2023/06/21 04:18:30;;;;;;;17.52;12.00;;;;;;;18.04;100.00;101315.84;4990061;28;20057;-73
2023/06/21 04:20:56;;;;;;;18.92;11.40;;;;;;;18.10;100.00;101323.00;4990164;28;20382;-72
2023/06/21 04:23:21;;;;;;;19.25;11.50;;;;;;;18.12;100.00;101312.81;4990138;28;20462;-73
2023/06/21 04:25:47;;;;;;;18.73;10.73;;;;;;;18.14;100.00;101311.50;4989941;28;20100;-72
2023/06/21 04:28:12;;;;;;;20.45;12.75;;;;;;;18.17;100.00;101323.72;4990118;28;20041;-73
2023/06/21 04:30:37;;;;;;;17.70;12.00;;;;;;;18.18;100.00;101322.66;4989902;28;20034;-72
2023/06/21 04:33:03;;;;;;;19.45;12.25;;;;;;;18.15;100.00;101332.03;4989959;28;20062;-72
2023/06/21 04:35:28;;;;;;;18.25;10.82;;;;;;;18.19;100.00;101335.09;4989746;28;20032;-72
2023/06/21 04:37:54;;;;;;;18.98;11.25;;;;;;;18.20;100.00;101325.13;4989658;28;20145;-72
2023/06/21 04:40:21;;;;;;;18.92;11.20;;;;;;;18.15;100.00;101325.81;4989940;28;20034;-72
2023/06/21 04:42:54;;;;;;;22.58;12.68;;;;;;;18.24;100.00;101339.81;4989837;28;20026;-72
2023/06/21 04:45:20;;;;;;;18.67;11.85;;;;;;;18.30;100.00;101342.38;5008578;28;20036;-72
2023/06/21 04:47:48;;;;;;;21.25;11.48;;;;;;;18.35;100.00;101350.59;4991011;28;20029;-72
2023/06/21 04:50:16;;;;;;;19.38;12.38;;;;;;;18.37;100.00;101345.78;5008452;28;20080;-71
2023/06/21 04:52:48;;;;;;;19.73;12.02;;;;;;;18.39;100.00;101357.16;5008542;28;20116;-72
2023/06/21 04:55:17;;;;;;;18.73;12.00;;;;;;;18.40;100.00;101353.41;5008305;28;20141;-72
2023/06/21 04:57:46;;;;;;;23.30;10.98;;;;;;;18.44;100.00;101350.22;5003888;28;20059;-73
2023/06/21 05:00:12;;;;;;;20.55;12.98;;;;;;;18.45;100.00;101347.28;4989544;28;20038;-72
2023/06/21 05:02:38;;;;;;;20.20;12.15;;;;;;;18.48;100.00;101348.69;4989835;28;20034;-73
2023/06/21 05:05:04;;;;;;;19.83;12.80;;;;;;;18.45;100.00;101344.59;4989721;28;20035;-73
2023/06/21 05:07:29;;;;;;;24.60;13.18;;;;;;;18.47;100.00;101349.75;4989825;28;20034;-73
2023/06/21 05:09:55;;;;;;;23.23;13.27;;;;;;;18.59;100.00;101356.78;4989753;28;20125;-72
2023/06/21 05:12:20;;;;;;;20.83;12.90;;;;;;;18.66;100.00;101359.34;4989620;28;20030;-73
2023/06/21 05:14:46;;;;;;;23.00;12.63;;;;;;;18.72;100.00;101368.38;4989544;28;20038;-73
2023/06/21 05:17:13;;;;;;;20.92;14.35;;;;;;;18.76;100.00;101370.41;4989291;28;20033;-72
2023/06/21 05:19:38;;;;;;;23.25;14.10;;;;;;;18.79;100.00;101364.53;5008205;28;20030;-72
2023/06/21 05:22:04;;;;;;;25.08;14.80;;;;;;;18.87;100.00;101367.94;5008149;28;20041;-72
2023/06/21 05:24:29;;;;;;;22.70;13.68;;;;;;;18.94;100.00;101368.59;5009718;28;20033;-72
2023/06/21 05:26:55;;;;;;;22.98;14.95;;;;;;;19.07;100.00;101384.53;5011852;28;20083;-73
2023/06/21 05:29:20;;;;;;;22.98;15.40;;;;;;;19.16;100.00;101377.69;5012056;28;20034;-72
2023/06/21 05:31:45;;;;;;;23.83;16.00;;;;;;;19.25;100.00;101386.25;5011834;28;20025;-73
2023/06/21 05:34:11;;;;;;;24.08;15.57;;;;;;;19.24;100.00;101390.00;5011738;28;20030;-72
2023/06/21 05:36:36;;;;;;;24.92;15.73;;;;;;;19.15;100.00;101384.19;5011355;28;20062;-72
2023/06/21 05:39:03;;;;;;;23.48;16.20;;;;;;;19.09;100.00;101374.31;5011868;28;20037;-73
2023/06/21 05:41:28;;;;;;;28.25;16.27;;;;;;;19.08;100.00;101380.78;5011760;28;20427;-73
2023/06/21 05:43:54;;;;;;;26.55;17.00;;;;;;;19.08;100.00;101383.50;5011594;28;20144;-73
2023/06/21 05:46:19;;;;;;;25.58;16.00;;;;;;;19.16;100.00;101382.28;5002551;28;20623;-72
2023/06/21 05:48:44;;;;;;;25.92;15.82;;;;;;;19.29;100.00;101389.28;4992782;28;20036;-73
2023/06/21 05:51:10;;;;;;;26.00;16.20;;;;;;;19.40;100.00;101385.72;4992860;28;20038;-73
2023/06/21 05:53:35;;;;;;;27.65;16.92;;;;;;;19.46;100.00;101399.06;4992695;28;20473;-73
2023/06/21 05:56:00;;;;;;;23.83;16.48;;;;;;;19.40;100.00;101405.47;4992461;28;20045;-73
2023/06/21 05:58:26;;;;;;;24.60;14.98;;;;;;;19.38;100.00;101407.59;4992909;28;20038;-73
2023/06/21 06:00:51;;;;;;;24.08;15.13;;;;;;;19.35;100.00;101409.97;4992485;28;20091;-74
2023/06/21 06:03:17;;;;;;;23.30;15.02;;;;;;;19.34;100.00;101411.84;4992570;28;20469;-73
2023/06/21 06:05:44;;;;;;;24.00;14.98;;;;;;;19.36;100.00;101422.41;4992319;28;20069;-74
2023/06/21 06:08:09;;;;;;;23.52;15.30;;;;;;;19.38;100.00;101429.22;4992548;28;20061;-73
2023/06/21 06:10:35;;;;;;;24.17;14.65;;;;;;;19.39;100.00;101427.38;4992322;28;20062;-73
2023/06/21 06:13:00;;;;;;;23.55;13.88;;;;;;;19.39;100.00;101427.38;4977306;28;20065;-74
2023/06/21 06:15:25;;;;;;;23.63;13.38;;;;;;;19.35;100.00;101426.19;5010700;28;20109;-73
2023/06/21 06:17:51;;;;;;;23.38;13.15;;;;;;;19.43;100.00;101433.91;5011157;28;20042;-74
2023/06/21 06:20:16;;;;;;;21.48;14.48;;;;;;;19.49;100.00;101425.66;5004604;28;20409;-74
2023/06/21 06:22:42;;;;;;;22.00;14.40;;;;;;;19.49;100.00;101414.84;4993262;28;20045;-73
2023/06/21 06:25:07;;;;;;;23.60;13.85;;;;;;;19.47;100.00;101426.97;4996192;28;20026;-73
2023/06/21 06:27:33;;;;;;;24.75;14.57;;;;;;;19.37;100.00;101422.19;4974556;28;20509;-74
2023/06/21 06:29:58;;;;;;;22.77;13.65;;;;;;;19.36;100.00;101434.06;4991732;28;20054;-74
2023/06/21 06:32:26;;;;;;;25.50;13.70;;;;;;;19.31;100.00;101438.53;4994164;28;20023;-72
2023/06/21 06:34:52;;;;;;;23.10;14.65;;;;;;;19.34;100.00;101457.03;4974465;28;20731;-73
2023/06/21 06:37:17;;;;;;;22.73;14.43;;;;;;;19.39;100.00;101459.81;4991179;28;20086;-73
2023/06/21 06:39:42;;;;;;;22.63;14.10;;;;;;;19.38;100.00;101456.28;4998256;28;20125;-73
2023/06/21 06:42:10;;;;;;;22.45;15.30;;;;;;;19.43;100.00;101448.25;5010270;28;20397;-74
2023/06/21 06:44:35;;;;;;;21.05;12.82;;;;;;;19.52;100.00;101462.25;5010372;28;20036;-73
2023/06/21 06:47:00;;;;;;;22.35;13.70;;;;;;;19.57;100.00;101465.06;5010258;28;20026;-72
2023/06/21 06:49:26;;;;;;;24.40;12.75;;;;;;;19.59;100.00;101465.59;5010353;28;20042;-73
2023/06/21 06:51:51;;;;;;;21.90;14.00;;;;;;;19.64;100.00;101475.72;5010301;28;20503;-72
2023/06/21 06:54:16;;;;;;;18.95;10.18;;;;;;;19.67;100.00;101476.06;5010282;28;20453;-72
2023/06/21 06:56:42;;;;;;;18.92;11.77;;;;;;;19.76;100.00;101483.81;5009899;28;20041;-72
2023/06/21 06:59:07;;;;;;;21.17;12.00;;;;;;;19.84;100.00;101483.44;5010113;28;20029;-72
2023/06/21 07:01:32;;;;;;;19.70;12.18;;;;;;;19.85;100.00;101483.16;5009951;28;20037;-73
2023/06/21 07:03:59;;;;;;;18.75;11.05;;;;;;;19.96;100.00;101486.88;5010070;28;20029;-72
2023/06/21 07:06:25;;;;;;;18.55;11.18;;;;;;;19.94;100.00;101494.44;5010138;28;20051;-73
2023/06/21 07:08:50;;;;;;;16.92;9.52;;;;;;;19.98;100.00;101492.88;4992359;28;20168;-73
2023/06/21 07:11:15;;;;;;;18.65;10.88;;;;;;;20.06;100.00;101495.19;4997116;28;20065;-73
2023/06/21 07:13:42;;;;;;;19.60;12.13;;;;;;;20.10;100.00;101499.06;4991313;28;20112;-73
2023/06/21 07:16:08;;;;;;;19.13;10.48;;;;;;;20.21;100.00;101494.63;4990791;28;20482;-73
2023/06/21 07:18:33;;;;;;;16.83;9.60;;;;;;;20.38;100.00;101494.63;4991023;28;20042;-73
2023/06/21 07:20:58;;;;;;;19.83;10.73;;;;;;;20.48;100.00;101494.78;4990018;28;20034;-73
2023/06/21 07:23:24;;;;;;;19.17;10.52;;;;;;;20.54;100.00;101498.44;4990467;28;20151;-73
2023/06/21 07:25:49;;;;;;;19.63;11.50;;;;;;;20.50;100.00;101495.38;4974863;28;20035;-72
2023/06/21 07:28:14;;;;;;;18.48;11.05;;;;;;;20.44;100.00;101499.09;4993878;28;20068;-75
2023/06/21 07:30:42;;;;;;;17.65;11.13;;;;;;;20.40;100.00;101497.09;4994112;28;20121;-74
2023/06/21 07:33:08;;;;;;;19.73;10.32;;;;;;;20.35;100.00;101495.13;4992412;28;20026;-72
2023/06/21 07:35:34;;;;;;;17.80;9.93;;;;;;;20.38;100.00;101489.22;4993450;28;20038;-71
2023/06/21 07:37:59;;;;;;;18.50;10.98;;;;;;;20.33;100.00;101498.09;4993612;28;20050;-71
2023/06/21 07:40:25;;;;;;;16.30;10.13;;;;;;;20.33;100.00;101494.53;4993695;28;20042;-72
2023/06/21 07:42:50;;;;;;;16.73;10.52;;;;;;;20.37;100.00;101501.13;4976317;28;20125;-71
2023/06/21 07:45:16;;;;;;;15.85;8.98;;;;;;;20.35;100.00;101495.13;4993019;28;20030;-72
2023/06/21 07:47:41;;;;;;;18.08;11.70;;;;;;;20.41;100.00;101510.41;4975225;28;20118;-71
2023/06/21 07:50:07;;;;;;;17.13;10.05;;;;;;;20.44;100.00;101509.09;4992148;28;20476;-72
2023/06/21 07:52:32;;;;;;;20.67;11.45;;;;;;;20.51;100.00;101510.59;4992195;28;20026;-71
2023/06/21 07:54:58;;;;;;;19.33;10.65;;;;;;;20.58;100.00;101518.56;4991920;28;20045;-72
2023/06/21 07:57:23;;;;;;;19.95;10.57;;;;;;;20.62;100.00;101516.16;4993886;28;20040;-71
2023/06/21 07:59:49;;;;;;;17.42;8.93;;;;;;;20.67;100.00;101519.81;4976039;28;20477;-72
2023/06/21 08:02:17;;;;;;;15.95;9.43;;;;;;;20.73;100.00;101518.00;4992256;28;20030;-71
2023/06/21 08:04:43;;;;;;;18.92;9.95;;;;;;;20.79;100.00;101516.97;4993415;28;20045;-73
2023/06/21 08:07:08;;;;;;;14.07;8.50;;;;;;;20.84;100.00;101521.66;4993950;28;20022;-73
2023/06/21 08:09:34;;;;;;;16.70;9.40;;;;;;;20.95;100.00;101521.56;4992977;28;20030;-73
2023/06/21 08:12:00;;;;;;;13.60;7.60;;;;;;;21.17;98.23;101527.03;4992263;28;20497;-72
2023/06/21 08:14:26;;;;;;;14.45;7.15;;;;;;;22.25;97.29;101528.28;4991829;28;20388;-71
2023/06/21 08:16:51;;;;;;;9.55;5.18;;;;;;;23.18;84.84;101533.28;4992762;28;20575;-71
2023/06/21 08:19:17;;;;;;;13.05;6.53;;;;;;;24.16;82.12;101535.25;4992267;28;20041;-74
2023/06/21 08:21:42;;;;;;;14.38;7.30;;;;;;;25.56;75.59;101538.28;4992404;28;20030;-75
2023/06/21 08:24:07;;;;;;;14.43;7.05;;;;;;;26.74;70.06;101542.97;4974013;28;20122;-72
2023/06/21 08:26:33;;;;;;;10.75;6.47;;;;;;;27.09;65.40;101543.69;4973726;28;20032;-73
2023/06/21 08:28:59;;;;;;;12.35;6.68;;;;;;;27.97;61.66;101544.25;4993616;28;20532;-72
2023/06/21 08:31:24;;;;;;;11.55;6.35;;;;;;;29.42;57.58;101549.66;4993351;28;20512;-71
2023/06/21 08:33:49;;;;;;;9.82;6.03;;;;;;;30.58;53.97;101552.75;4992508;28;20085;-76
2023/06/21 08:36:15;;;;;;;11.23;7.28;;;;;;;31.30;50.44;101559.88;4993651;28;20118;-76
2023/06/21 08:38:40;;;;;;;12.05;7.00;;;;;;;31.87;49.01;101542.50;4974631;28;20077;-75
2023/06/21 08:41:06;;;;;;;12.15;7.40;;;;;;;32.25;47.76;101541.81;4993177;28;20035;-75
2023/06/21 08:43:32;;;;;;;10.57;6.95;;;;;;;32.70;45.48;101544.19;4992888;28;20030;-72
2023/06/21 08:45:58;;;;;;;11.00;7.18;;;;;;;33.08;44.47;101540.63;4992079;28;20405;-71
2023/06/21 08:48:28;;;;;;;13.88;7.88;;;;;;;33.27;43.88;101540.19;4974781;28;20057;-74
2023/06/21 08:50:54;;;;;;;12.63;7.93;;;;;;;33.49;43.74;101539.91;4992440;28;20117;-73
2023/06/21 08:53:29;;;;;;;9.25;6.35;;;;;;;33.86;44.24;101537.38;4993464;28;20036;-73
2023/06/21 08:55:56;;;;;;;10.65;6.25;;;;;;;34.12;41.13;101542.69;4991653;28;20029;-73
2023/06/21 08:58:23;;;;;;;8.98;6.10;;;;;;;34.30;40.59;101537.81;4993106;28;20026;-73
2023/06/21 09:00:53;;;;;;;11.13;7.45;;;;;;;34.54;40.53;101545.34;4995405;28;20530;-73
2023/06/21 09:03:23;;;;;;;9.77;5.75;;;;;;;34.59;38.56;101542.41;4996563;28;20022;-73
2023/06/21 09:05:49;;;;;;;11.02;7.63;;;;;;;34.69;37.93;101541.16;4995176;28;20351;-73
2023/06/21 09:08:14;;;;;;;8.30;6.20;;;;;;;33.54;40.04;101536.97;4997123;28;20028;-73
2023/06/21 09:10:41;;;;;;;27.30;9.45;;;;;;;31.62;44.68;101539.41;4996557;28;20038;-73
2023/06/21 09:13:08;;;;;;;11.90;7.13;;;;;;;30.02;48.42;101546.66;4995755;28;21630;-73
2023/06/21 09:15:34;;;;;;;11.13;6.90;;;;;;;28.79;51.08;101543.72;4994812;28;20383;-73
2023/06/21 09:18:00;;;;;;;12.07;6.97;;;;;;;28.02;54.33;101541.44;4995656;28;20481;-72
2023/06/21 09:20:29;;;;;;;10.18;6.93;;;;;;;27.33;56.04;101554.69;4995756;28;20048;-72
2023/06/21 09:22:58;;;;;;;8.52;5.40;;;;;;;26.75;55.76;101554.72;4996503;28;20033;-73
2023/06/21 09:25:24;;;;;;;8.50;5.63;;;;;;;26.24;59.57;101564.97;4996172;28;20381;-73
2023/06/21 09:27:50;;;;;;;9.80;5.53;;;;;;;25.92;60.85;101559.19;4993980;28;20718;-72
2023/06/21 09:30:16;;;;;;;9.55;6.15;;;;;;;25.80;61.53;101557.56;4976707;28;20168;-72
2023/06/21 09:32:41;;;;;;;10.77;6.93;;;;;;;25.66;62.28;101558.47;4996534;28;20018;-72
2023/06/21 09:35:08;;;;;;;7.60;5.40;;;;;;;25.45;62.90;101555.03;4996379;28;20022;-73
2023/06/21 09:37:34;;;;;;;9.93;4.95;;;;;;;25.26;61.63;101557.56;4995112;28;20410;-74
2023/06/21 09:40:00;;;;;;;7.63;5.28;;;;;;;25.24;62.00;101554.28;4996079;28;20423;-73
2023/06/21 09:42:26;;;;;;;9.57;4.75;;;;;;;25.17;61.45;101559.22;4996562;28;20318;-73
2023/06/21 09:44:52;;;;;;;9.68;5.43;;;;;;;25.18;62.91;101563.56;4995732;28;20062;-73
2023/06/21 09:47:18;;;;;;;7.85;4.20;;;;;;;25.29;65.71;101555.09;4995956;28;20064;-73
2023/06/21 09:49:47;;;;;;;5.43;3.35;;;;;;;25.44;63.57;101558.84;4995359;28;20037;-72
2023/06/21 09:52:19;;;;;;;8.93;4.95;;;;;;;25.41;59.18;101562.13;4995216;28;20038;-73
2023/06/21 09:54:45;;;;;;;5.82;3.70;;;;;;;25.18;60.22;101555.38;4994894;28;20044;-72
2023/06/21 09:57:10;;;;;;;7.63;3.78;;;;;;;25.14;59.11;101572.28;4994783;28;20018;-73
2023/06/21 09:59:40;;;;;;;6.05;3.20;;;;;;;24.95;57.37;101559.53;4996769;28;20034;-73
2023/06/21 10:02:09;;;;;;;6.18;3.75;;;;;;;24.88;59.27;101576.97;4995688;28;20022;-73
2023/06/21 10:04:42;;;;;;;7.32;3.92;;;;;;;24.86;60.48;101572.88;4995713;28;20029;-72
2023/06/21 10:07:07;;;;;;;9.00;4.45;;;;;;;24.80;60.03;101569.34;4995341;28;20034;-73
2023/06/21 10:09:37;;;;;;;15.35;4.93;;;;;;;24.92;62.61;101572.63;4995602;28;20042;-72
2023/06/21 10:12:13;;;;;;;8.15;4.45;;;;;;;25.06;65.23;101564.66;4996199;28;20113;-73
2023/06/21 10:14:39;;;;;;;21.17;6.47;;;;;;;25.18;62.78;101574.50;4994699;28;20034;-72
2023/06/21 10:17:05;;;;;;;9.65;4.80;;;;;;;25.04;61.47;101566.84;4994492;28;20072;-73
2023/06/21 10:19:32;;;;;;;8.02;4.13;;;;;;;25.09;62.28;101576.94;4996251;28;20030;-72
2023/06/21 10:21:57;;;;;;;8.27;4.57;;;;;;;25.35;62.83;101577.72;4994409;28;20686;-73
2023/06/21 10:24:26;;;;;;;8.17;4.80;;;;;;;25.59;63.69;101583.38;4995830;28;20041;-73
2023/06/21 10:26:52;;;;;;;9.35;5.60;;;;;;;25.68;61.64;101595.34;4995285;28;20286;-72
2023/06/21 10:29:18;;;;;;;5.93;3.97;;;;;;;25.59;59.21;101599.75;4994515;28;20054;-73
2023/06/21 10:31:44;;;;;;;9.93;5.13;;;;;;;25.47;59.97;101599.28;4993035;28;20088;-73
2023/06/21 10:34:18;;;;;;;6.78;4.97;;;;;;;25.32;61.91;101598.22;4996093;28;20030;-73
2023/06/21 10:36:48;;;;;;;8.00;3.78;;;;;;;25.33;60.96;101596.28;4976232;28;20456;-73
2023/06/21 10:39:14;;;;;;;6.68;3.13;;;;;;;25.49;59.12;101607.97;4995218;28;20036;-73
2023/06/21 10:41:41;;;;;;;8.75;4.97;;;;;;;25.45;58.63;101596.00;4994555;28;20042;-73
2023/06/21 10:44:07;;;;;;;8.30;4.30;;;;;;;25.40;58.87;101596.00;4991833;28;20096;-73
2023/06/21 10:46:35;;;;;;;8.95;4.85;;;;;;;25.44;59.84;101597.91;5007954;28;20030;-73
2023/06/21 10:49:01;;;;;;;8.60;4.40;;;;;;;25.39;60.36;101600.66;4992416;28;20489;-73
2023/06/21 10:51:27;;;;;;;5.75;3.92;;;;;;;25.25;61.99;101605.88;4990898;28;20040;-73
2023/06/21 10:53:53;;;;;;;6.20;3.92;;;;;;;25.39;61.40;101610.75;5004980;28;20084;-73
2023/06/21 10:56:20;;;;;;;3.72;2.80;;;;;;;25.54;58.76;101607.97;5010352;28;20026;-73
2023/06/21 10:58:45;;;;;;;8.48;2.67;;;;;;;25.75;57.68;101619.63;5010351;28;20062;-73
2023/06/21 11:01:11;;;;;;;4.50;2.60;;;;;;;25.78;57.36;101610.88;5010343;28;20034;-73
2023/06/21 11:03:38;;;;;;;6.82;3.17;;;;;;;25.63;56.80;101617.25;5010080;28;20076;-73
2023/06/21 11:06:37;;;;;;;6.80;3.17;;;;;;;25.68;57.44;101611.75;5010203;28;20033;-74